Time;durP1;ratioP1;P1;durP2;ratioP2;P2;SDS_P1;SDS_P2;PMS_P1;PMS_P2;Temp;Humidity;BMP_temperature;BMP_pressure;BME280_temperature;BME280_humidity;BME280_pressure;Samples;Min_cycle;Max_cycle;Signal;HPM_P1;HPM_P2
2020/12/27 00:00:57;;;;;;;3.90;3.53;;;;;20.40;99516.00;;;;2073120;28;20219;-65
2020/12/27 00:01:57;;;;;;;4.40;3.97;;;;;20.40;99530.00;;;;2078664;28;20213;-66
2020/12/27 00:02:57;;;;;;;4.70;3.87;;;;;20.30;99520.00;;;;2070926;28;20312;-66
2020/12/27 00:03:58;;;;;;;3.43;3.13;;;;;20.30;99507.00;;;;2071235;28;20802;-66
2020/12/27 00:04:58;;;;;;;4.57;3.60;;;;;20.30;99510.00;;;;2079895;28;20582;-66
2020/12/27 00:05:59;;;;;;;3.70;3.00;;;;;20.30;99494.00;;;;2078059;28;20228;-65
2020/12/27 00:07:17;;;;;;;3.60;3.03;;;;;20.30;99506.00;;;;2073802;28;20884;-66
2020/12/27 00:08:18;;;;;;;3.47;3.13;;;;;20.30;99476.00;;;;2075508;28;20227;-66
2020/12/27 00:09:19;;;;;;;4.00;3.60;;;;;20.30;99492.00;;;;2076528;28;20712;-65
2020/12/27 00:10:19;;;;;;;3.55;3.00;;;;;20.30;99487.00;;;;2066616;28;20227;-66
2020/12/27 00:11:20;;;;;;;3.30;3.00;;;;;20.30;99475.00;;;;2059874;28;20652;-66
2020/12/27 00:12:20;;;;;;;4.40;2.93;;;;;20.30;99469.00;;;;2071194;28;20220;-65
2020/12/27 00:13:20;;;;;;;3.40;3.10;;;;;20.30;99480.00;;;;2076755;28;20221;-66
2020/12/27 00:14:21;;;;;;;3.17;2.87;;;;;20.30;99462.00;;;;2080028;28;20687;-66
2020/12/27 00:15:21;;;;;;;4.43;3.67;;;;;20.30;99468.00;;;;2066250;28;20727;-66
2020/12/27 00:16:23;;;;;;;3.20;2.90;;;;;20.30;99455.00;;;;2067323;28;20237;-64
2020/12/27 00:17:23;;;;;;;3.60;3.30;;;;;20.30;99458.00;;;;2080021;28;20295;-64
2020/12/27 00:18:24;;;;;;;3.27;2.77;;;;;20.30;99450.00;;;;2074710;28;20328;-65
2020/12/27 00:19:25;;;;;;;3.20;2.90;;;;;20.20;99440.00;;;;2077025;28;20215;-65
2020/12/27 00:20:25;;;;;;;3.13;2.80;;;;;20.20;99451.00;;;;2065836;28;20214;-64
2020/12/27 00:21:25;;;;;;;3.03;2.80;;;;;20.20;99429.00;;;;2063288;28;21118;-64
2020/12/27 00:22:26;;;;;;;3.73;2.90;;;;;20.20;99442.00;;;;2063346;28;20210;-64
2020/12/27 00:23:26;;;;;;;2.63;2.43;;;;;20.20;99445.00;;;;2068595;28;20231;-65
2020/12/27 00:24:26;;;;;;;3.47;2.90;;;;;20.20;99440.00;;;;2074375;28;20282;-64
2020/12/27 00:25:27;;;;;;;2.97;2.60;;;;;20.20;99448.00;;;;2071560;28;20233;-65
2020/12/27 00:26:27;;;;;;;3.73;3.30;;;;;20.20;99436.00;;;;2068699;28;20292;-65
2020/12/27 00:27:27;;;;;;;2.90;2.53;;;;;20.20;99446.00;;;;2065636;28;20214;-64
2020/12/27 00:28:28;;;;;;;2.93;2.63;;;;;20.20;99453.00;;;;2076709;28;20217;-64
2020/12/27 00:29:28;;;;;;;3.20;2.47;;;;;20.20;99439.00;;;;2074275;28;20696;-64
2020/12/27 00:30:28;;;;;;;2.53;2.33;;;;;20.20;99449.00;;;;2069010;28;20764;-64
2020/12/27 00:31:29;;;;;;;2.87;2.57;;;;;20.20;99436.00;;;;2065279;28;20232;-64
2020/12/27 00:32:29;;;;;;;2.53;2.30;;;;;20.20;99426.00;;;;2062970;28;20221;-64
2020/12/27 00:33:29;;;;;;;2.33;2.00;;;;;20.20;99431.00;;;;2069244;28;20210;-65
2020/12/27 00:34:30;;;;;;;2.90;2.60;;;;;20.20;99441.00;;;;2079875;28;20212;-64
2020/12/27 00:35:30;;;;;;;2.50;2.27;;;;;20.20;99419.00;;;;2073678;28;20264;-65
2020/12/27 00:36:30;;;;;;;2.40;2.07;;;;;20.20;99406.00;;;;2077969;28;20209;-65
2020/12/27 00:37:31;;;;;;;2.30;2.10;;;;;20.20;99412.00;;;;2073728;28;20217;-64
2020/12/27 00:38:32;;;;;;;2.20;1.92;;;;;20.20;99394.00;;;;2071875;28;20210;-65
2020/12/27 00:39:32;;;;;;;2.37;2.17;;;;;20.20;99393.00;;;;2078298;28;20275;-64
2020/12/27 00:40:32;;;;;;;2.93;2.63;;;;;20.20;99399.00;;;;2064564;28;20218;-64
2020/12/27 00:41:33;;;;;;;2.20;2.00;;;;;20.20;99393.00;;;;2069496;28;20266;-64
2020/12/27 00:42:33;;;;;;;2.40;2.20;;;;;20.20;99381.00;;;;2073100;28;20225;-64
2020/12/27 00:43:33;;;;;;;2.20;2.00;;;;;20.20;99386.00;;;;2078354;28;20226;-64
2020/12/27 00:44:34;;;;;;;2.67;2.30;;;;;20.20;99385.00;;;;2079823;28;20213;-65
2020/12/27 00:45:34;;;;;;;2.40;2.20;;;;;20.20;99364.00;;;;2073135;28;20294;-64
2020/12/27 00:46:34;;;;;;;2.50;2.30;;;;;20.20;99381.00;;;;2078406;28;20212;-64
2020/12/27 00:47:35;;;;;;;2.33;2.10;;;;;20.20;99370.00;;;;2079844;28;20306;-64
2020/12/27 00:48:35;;;;;;;3.57;1.73;;;;;20.20;99367.00;;;;2072962;28;20248;-64
2020/12/27 00:49:35;;;;;;;2.80;2.40;;;;;20.20;99377.00;;;;2078636;28;20213;-64
2020/12/27 00:50:36;;;;;;;2.77;1.80;;;;;20.20;99376.00;;;;2073014;28;20264;-64
2020/12/27 00:51:36;;;;;;;2.13;1.93;;;;;20.20;99371.00;;;;2078579;28;20217;-64
2020/12/27 00:52:36;;;;;;;2.10;1.90;;;;;20.10;99374.00;;;;2079869;28;20220;-64
2020/12/27 00:53:37;;;;;;;2.50;1.70;;;;;20.20;99363.00;;;;2072780;28;20308;-64
2020/12/27 00:54:37;;;;;;;2.40;2.10;;;;;20.10;99368.00;;;;2071643;28;20273;-64
2020/12/27 00:55:37;;;;;;;2.27;1.90;;;;;20.10;99348.00;;;;2078928;28;20208;-64
2020/12/27 00:56:38;;;;;;;1.63;1.50;;;;;20.10;99343.00;;;;2079970;28;20262;-64
2020/12/27 00:57:38;;;;;;;1.60;1.50;;;;;20.10;99352.00;;;;2072538;28;20228;-64
2020/12/27 00:58:39;;;;;;;1.97;1.70;;;;;20.10;99352.00;;;;2068164;28;20218;-65
2020/12/27 00:59:40;;;;;;;2.25;1.58;;;;;20.10;99332.00;;;;2063632;28;20225;-65
2020/12/27 01:00:40;;;;;;;2.50;1.87;;;;;20.10;99333.00;;;;2071678;28;20745;-64
2020/12/27 01:01:40;;;;;;;2.10;1.90;;;;;20.10;99326.00;;;;2077896;28;20587;-64
2020/12/27 01:02:40;;;;;;;2.13;1.57;;;;;20.10;99332.00;;;;2063285;28;20696;-65
2020/12/27 01:03:41;;;;;;;1.60;1.40;;;;;20.10;99330.00;;;;2070385;28;20220;-65
2020/12/27 01:04:42;;;;;;;1.90;1.67;;;;;20.10;99323.00;;;;2071868;28;20217;-64
2020/12/27 01:05:42;;;;;;;2.47;1.80;;;;;20.10;99334.00;;;;2079328;28;20217;-62
2020/12/27 01:06:42;;;;;;;1.70;1.60;;;;;20.10;99332.00;;;;2071955;28;20256;-63
2020/12/27 01:07:43;;;;;;;1.50;1.40;;;;;20.10;99325.00;;;;2079351;28;20288;-62
2020/12/27 01:08:43;;;;;;;1.80;1.70;;;;;20.10;99324.00;;;;2071926;28;20701;-62
2020/12/27 01:09:43;;;;;;;1.83;1.50;;;;;20.10;99306.00;;;;2078827;28;20213;-62
2020/12/27 01:10:44;;;;;;;1.50;1.40;;;;;20.10;99324.00;;;;2071764;28;20271;-61
2020/12/27 01:11:45;;;;;;;1.50;1.30;;;;;20.10;99317.00;;;;2079554;28;20618;-62
2020/12/27 01:12:45;;;;;;;2.10;1.60;;;;;20.10;99328.00;;;;2071526;28;20213;-63
2020/12/27 01:13:46;;;;;;;1.70;1.40;;;;;20.10;99321.00;;;;2079476;28;20235;-63
2020/12/27 01:14:46;;;;;;;2.50;1.90;;;;;20.10;99317.00;;;;2071586;28;20278;-62
2020/12/27 01:15:47;;;;;;;1.20;1.10;;;;;20.10;99313.00;;;;2067373;28;20724;-62
2020/12/27 01:16:50;;;;;;;1.73;1.47;;;;;20.10;99310.00;;;;2069755;28;20285;-63
2020/12/27 01:17:50;;;;;;;1.33;1.20;;;;;20.10;99312.00;;;;2065876;28;20688;-63
2020/12/27 01:18:51;;;;;;;1.23;1.13;;;;;20.00;99318.00;;;;2065894;28;20230;-62
2020/12/27 01:19:51;;;;;;;1.50;1.30;;;;;20.10;99320.00;;;;2079622;28;20231;-63
2020/12/27 01:20:51;;;;;;;2.50;1.60;;;;;20.10;99306.00;;;;2079787;28;20684;-63
2020/12/27 01:21:53;;;;;;;1.30;1.20;;;;;20.00;99317.00;;;;2061783;28;20727;-62
2020/12/27 01:22:53;;;;;;;2.17;1.40;;;;;20.00;99294.00;;;;2054671;28;20230;-63
2020/12/27 01:23:54;;;;;;;1.60;1.20;;;;;20.00;99306.00;;;;2072875;28;20242;-62
2020/12/27 01:24:55;;;;;;;1.52;1.20;;;;;20.00;99293.00;;;;2069484;28;20220;-62
2020/12/27 01:25:55;;;;;;;2.00;0.93;;;;;20.00;99300.00;;;;2064383;28;20713;-62
2020/12/27 01:26:55;;;;;;;1.47;1.10;;;;;20.00;99304.00;;;;2078297;28;20705;-63
2020/12/27 01:27:56;;;;;;;1.23;0.97;;;;;20.00;99294.00;;;;2072783;28;20236;-62
2020/12/27 01:28:56;;;;;;;1.93;1.43;;;;;20.00;99295.00;;;;2078115;28;20238;-62
2020/12/27 01:29:56;;;;;;;1.80;1.40;;;;;20.00;99279.00;;;;2071543;28;20572;-63
2020/12/27 01:30:57;;;;;;;1.47;1.33;;;;;20.00;99281.00;;;;2073049;28;20228;-62
2020/12/27 01:32:01;;;;;;;1.30;1.20;;;;;20.00;99278.00;;;;2078017;28;20228;-63
2020/12/27 01:33:01;;;;;;;1.60;1.42;;;;;20.00;99263.00;;;;2073522;28;20304;-62
2020/12/27 01:34:01;;;;;;;2.43;1.30;;;;;20.00;99277.00;;;;2079780;28;20215;-63
2020/12/27 01:35:02;;;;;;;1.13;1.03;;;;;20.00;99244.00;;;;2077107;28;20950;-62
2020/12/27 01:36:02;;;;;;;1.57;1.40;;;;;20.00;99245.00;;;;2073699;28;20810;-62
2020/12/27 01:37:03;;;;;;;1.37;1.27;;;;;20.00;99215.00;;;;2077278;28;20217;-63
2020/12/27 01:38:04;;;;;;;1.43;1.33;;;;;20.00;99213.00;;;;2074001;28;20229;-63
2020/12/27 01:39:05;;;;;;;1.60;1.20;;;;;20.00;99203.00;;;;2076690;28;20236;-63
2020/12/27 01:40:06;;;;;;;1.20;0.90;;;;;20.00;99211.00;;;;2074416;28;20460;-62
2020/12/27 01:41:06;;;;;;;1.00;0.90;;;;;20.00;99208.00;;;;2076689;28;20217;-63
2020/12/27 01:42:06;;;;;;;1.00;0.90;;;;;20.00;99185.00;;;;2074201;28;20220;-62
2020/12/27 01:43:07;;;;;;;1.23;1.13;;;;;20.00;99209.00;;;;2077878;28;20211;-62
2020/12/27 01:44:07;;;;;;;1.00;0.90;;;;;20.00;99208.00;;;;2079517;28;20688;-62
2020/12/27 01:45:08;;;;;;;1.17;1.07;;;;;19.90;99204.00;;;;2074469;28;20750;-62
2020/12/27 01:46:08;;;;;;;1.10;0.83;;;;;20.00;99205.00;;;;2079468;28;20830;-63
2020/12/27 01:47:16;;;;;;;1.30;1.20;;;;;19.90;99199.00;;;;2076363;28;20318;-63
2020/12/27 01:48:16;;;;;;;1.00;0.90;;;;;19.90;99202.00;;;;2075699;28;20708;-63
2020/12/27 01:49:16;;;;;;;0.93;0.83;;;;;19.90;99200.00;;;;2058496;28;20228;-62
2020/12/27 01:50:18;;;;;;;1.20;1.10;;;;;19.90;99199.00;;;;2050921;28;20748;-63
2020/12/27 01:51:18;;;;;;;1.45;1.05;;;;;20.00;99196.00;;;;2067067;28;20265;-62
2020/12/27 01:52:18;;;;;;;0.97;0.87;;;;;19.90;99182.00;;;;2075940;28;20703;-63
2020/12/27 01:53:19;;;;;;;1.53;1.00;;;;;20.00;99181.00;;;;2079503;28;20587;-62
2020/12/27 01:54:20;;;;;;;1.80;0.80;;;;;19.90;99190.00;;;;2075826;28;20221;-63
2020/12/27 01:55:20;;;;;;;0.75;0.75;;;;;19.90;99188.00;;;;2056101;28;20216;-63
2020/12/27 01:56:27;;;;;;;1.10;1.00;;;;;20.00;99184.00;;;;2061106;28;20208;-63
2020/12/27 01:58:01;;;;;;;1.10;0.90;;;;;19.90;99174.00;;;;2075436;28;20701;-62
2020/12/27 01:59:06;;;;;;;0.90;0.85;;;;;19.90;99177.00;;;;2042182;28;20685;-63
2020/12/27 02:00:07;;;;;;;1.10;1.00;;;;;19.90;99175.00;;;;2070347;28;20221;-62
2020/12/27 02:01:07;;;;;;;1.00;0.90;;;;;19.90;99154.00;;;;2072270;28;20220;-63
2020/12/27 02:02:07;;;;;;;1.03;0.87;;;;;19.90;99143.00;;;;2080834;28;20231;-62
2020/12/27 02:03:08;;;;;;;1.30;1.20;;;;;19.90;99146.00;;;;2075872;28;20218;-62
2020/12/27 02:04:10;;;;;;;1.00;0.90;;;;;19.90;99132.00;;;;2068979;28;20249;-62
2020/12/27 02:05:11;;;;;;;1.00;0.90;;;;;19.90;99137.00;;;;2051583;28;20220;-62
2020/12/27 02:06:12;;;;;;;1.20;1.10;;;;;19.90;99132.00;;;;2064502;28;20351;-62
2020/12/27 02:07:12;;;;;;;1.10;0.90;;;;;19.90;99136.00;;;;2076018;28;20270;-62
2020/12/27 02:08:12;;;;;;;1.00;0.90;;;;;19.90;99111.00;;;;2077270;28;20245;-62
2020/12/27 02:09:13;;;;;;;0.80;0.73;;;;;19.90;99115.00;;;;2067974;28;20580;-62
2020/12/27 02:10:13;;;;;;;1.33;1.00;;;;;19.90;99113.00;;;;2072498;28;20224;-62
2020/12/27 02:11:13;;;;;;;1.00;0.90;;;;;19.90;99113.00;;;;2076994;28;20696;-62
2020/12/27 02:12:14;;;;;;;1.00;0.90;;;;;19.90;99118.00;;;;2067879;28;20694;-62
2020/12/27 02:13:15;;;;;;;1.67;0.80;;;;;19.90;99103.00;;;;2067904;28;20229;-62
2020/12/27 02:14:15;;;;;;;0.80;0.70;;;;;19.90;99106.00;;;;2068071;28;20455;-62
2020/12/27 02:15:15;;;;;;;0.60;0.60;;;;;19.90;99105.00;;;;2067936;28;20323;-62
2020/12/27 02:16:17;;;;;;;0.60;0.60;;;;;19.90;99102.00;;;;2077103;28;20263;-62
2020/12/27 02:17:17;;;;;;;0.88;0.80;;;;;19.90;99108.00;;;;2076542;28;20230;-62
2020/12/27 02:18:18;;;;;;;1.00;0.77;;;;;19.90;99105.00;;;;2077161;28;20205;-62
2020/12/27 02:19:19;;;;;;;1.20;0.97;;;;;19.90;99106.00;;;;2067715;28;20263;-63
2020/12/27 02:20:21;;;;;;;0.93;0.80;;;;;19.90;99101.00;;;;2060688;28;20218;-62
2020/12/27 02:23:18;;;;;;;1.25;0.88;;;;;19.90;99087.00;;;;2063215;28;20212;-62
2020/12/27 02:24:18;;;;;;;0.90;0.80;;;;;19.90;99089.00;;;;2058963;28;20654;-62
2020/12/27 02:25:19;;;;;;;0.80;0.63;;;;;19.90;99077.00;;;;2062897;28;20657;-62
2020/12/27 02:26:19;;;;;;;1.00;0.90;;;;;19.90;99055.00;;;;2075662;28;20698;-62
2020/12/27 02:27:19;;;;;;;0.70;0.70;;;;;19.80;99085.00;;;;2076715;28;20233;-62
2020/12/27 02:28:19;;;;;;;1.17;0.80;;;;;19.80;99085.00;;;;2075433;28;20221;-62
2020/12/27 02:29:20;;;;;;;1.23;0.60;;;;;19.80;99082.00;;;;2076736;28;20298;-62
2020/12/27 02:30:20;;;;;;;0.90;0.83;;;;;19.90;99074.00;;;;2070005;28;20219;-62
2020/12/27 02:31:22;;;;;;;0.90;0.70;;;;;19.90;99084.00;;;;2063173;28;20222;-62
2020/12/27 02:32:22;;;;;;;0.80;0.60;;;;;19.80;99079.00;;;;2063162;28;20794;-63
2020/12/27 02:33:23;;;;;;;0.90;0.80;;;;;19.80;99066.00;;;;2071514;28;20220;-63
2020/12/27 02:34:23;;;;;;;0.70;0.60;;;;;19.90;99076.00;;;;2076477;28;20327;-63
2020/12/27 02:35:23;;;;;;;0.87;0.87;;;;;19.80;99060.00;;;;2065973;28;20213;-63
2020/12/27 02:36:24;;;;;;;0.80;0.67;;;;;19.80;99061.00;;;;2068645;28;20220;-61
2020/12/27 02:37:24;;;;;;;0.77;0.77;;;;;19.80;99057.00;;;;2066181;28;20228;-64
2020/12/27 02:38:25;;;;;;;0.90;0.70;;;;;19.80;99064.00;;;;2068862;28;20216;-63
2020/12/27 02:39:25;;;;;;;1.30;1.07;;;;;19.80;99067.00;;;;2071486;28;20216;-63
2020/12/27 02:40:25;;;;;;;1.23;0.83;;;;;19.80;99055.00;;;;2071737;28;20240;-63
2020/12/27 02:41:26;;;;;;;0.90;0.60;;;;;19.80;99053.00;;;;2080206;28;20278;-63
2020/12/27 02:42:26;;;;;;;0.90;0.80;;;;;19.80;99051.00;;;;2074860;28;20706;-63
2020/12/27 02:43:26;;;;;;;1.20;0.60;;;;;19.80;99042.00;;;;2078038;28;20210;-63
2020/12/27 02:44:27;;;;;;;1.00;0.80;;;;;19.80;99027.00;;;;2074970;28;20242;-63
2020/12/27 02:45:27;;;;;;;1.30;0.63;;;;;19.80;99012.00;;;;2078222;28;20567;-63
2020/12/27 02:46:27;;;;;;;0.80;0.60;;;;;19.80;99001.00;;;;2074755;28;20589;-63
2020/12/27 02:47:28;;;;;;;0.73;0.60;;;;;19.80;98995.00;;;;2078293;28;20223;-63
2020/12/27 02:48:28;;;;;;;0.70;0.60;;;;;19.80;98988.00;;;;2074578;28;20222;-64
2020/12/27 02:49:28;;;;;;;1.30;0.90;;;;;19.80;98995.00;;;;2077771;28;20222;-63
2020/12/27 02:50:29;;;;;;;0.83;0.63;;;;;19.80;98999.00;;;;2065623;28;20239;-62
2020/12/27 02:51:29;;;;;;;0.90;0.67;;;;;19.80;98994.00;;;;2068628;28;20228;-62
2020/12/27 02:52:29;;;;;;;0.77;0.53;;;;;19.80;98986.00;;;;2074618;28;20217;-63
2020/12/27 02:53:30;;;;;;;0.70;0.60;;;;;19.80;98992.00;;;;2078649;28;20582;-63
2020/12/27 02:54:30;;;;;;;0.60;0.60;;;;;19.80;98984.00;;;;2074235;28;20705;-62
2020/12/27 02:55:31;;;;;;;1.03;0.80;;;;;19.80;98972.00;;;;2078517;28;20691;-62
2020/12/27 02:56:32;;;;;;;0.90;0.70;;;;;19.70;98974.00;;;;2064681;28;20209;-63
2020/12/27 02:57:32;;;;;;;0.77;0.60;;;;;19.70;98969.00;;;;2068758;28;20221;-62
2020/12/27 02:58:32;;;;;;;0.60;0.50;;;;;19.80;98971.00;;;;2074001;28;20228;-62
2020/12/27 02:59:33;;;;;;;0.70;0.60;;;;;19.80;98979.00;;;;2078943;28;21069;-63
2020/12/27 03:00:33;;;;;;;0.90;0.60;;;;;19.80;98964.00;;;;2079151;28;20703;-62
2020/12/27 03:01:34;;;;;;;0.70;0.67;;;;;19.80;98957.00;;;;2080548;28;20620;-62
2020/12/27 03:02:34;;;;;;;0.80;0.70;;;;;19.80;98965.00;;;;2080393;28;20218;-62
2020/12/27 03:03:34;;;;;;;0.73;0.57;;;;;19.80;98944.00;;;;2078964;28;20236;-63
2020/12/27 03:04:35;;;;;;;1.07;0.50;;;;;19.80;98950.00;;;;2073672;28;20209;-62
2020/12/27 03:05:35;;;;;;;0.80;0.60;;;;;19.80;98940.00;;;;2079087;28;20244;-63
2020/12/27 03:06:35;;;;;;;0.77;0.60;;;;;19.80;98927.00;;;;2073862;28;20230;-62
2020/12/27 03:07:35;;;;;;;0.70;0.50;;;;;19.80;98926.00;;;;2079174;28;20764;-63
2020/12/27 03:08:36;;;;;;;0.80;0.60;;;;;19.70;98920.00;;;;2073640;28;20213;-63
2020/12/27 03:09:36;;;;;;;0.70;0.70;;;;;19.80;98914.00;;;;2079533;28;20258;-62
2020/12/27 03:10:37;;;;;;;0.80;0.60;;;;;19.70;98916.00;;;;2073528;28;20241;-62
2020/12/27 03:11:37;;;;;;;0.80;0.60;;;;;19.70;98907.00;;;;2079385;28;20210;-62
2020/12/27 03:12:37;;;;;;;1.07;0.60;;;;;19.70;98909.00;;;;2073328;28;20268;-63
2020/12/27 03:13:38;;;;;;;0.80;0.63;;;;;19.70;98906.00;;;;2079381;28;20232;-62
2020/12/27 03:14:38;;;;;;;0.67;0.60;;;;;19.70;98912.00;;;;2073110;28;20208;-62
2020/12/27 03:15:38;;;;;;;0.70;0.60;;;;;19.70;98910.00;;;;2070841;28;20227;-62
2020/12/27 03:16:39;;;;;;;0.70;0.60;;;;;19.70;98882.00;;;;2064322;28;20677;-62
2020/12/27 03:17:39;;;;;;;0.83;0.60;;;;;19.70;98889.00;;;;2079582;28;20749;-63
2020/12/27 03:18:40;;;;;;;0.73;0.50;;;;;19.70;98883.00;;;;2073070;28;20579;-63
2020/12/27 03:19:40;;;;;;;0.80;0.80;;;;;19.70;98879.00;;;;2070939;28;20211;-62
2020/12/27 03:20:41;;;;;;;0.70;0.50;;;;;19.70;98890.00;;;;2056089;28;20242;-63
2020/12/27 03:21:41;;;;;;;0.73;0.50;;;;;19.70;98872.00;;;;2070778;28;20728;-63
2020/12/27 03:22:42;;;;;;;0.70;0.60;;;;;19.70;98877.00;;;;2074296;28;20204;-63
2020/12/27 03:23:43;;;;;;;1.05;0.68;;;;;19.70;98849.00;;;;2076816;28;20241;-63
2020/12/27 03:24:43;;;;;;;0.70;0.70;;;;;19.70;98833.00;;;;2077123;28;20208;-63
2020/12/27 03:25:44;;;;;;;0.70;0.50;;;;;19.70;98842.00;;;;2068516;28;20290;-62
2020/12/27 03:26:44;;;;;;;0.70;0.60;;;;;19.80;98827.00;;;;2063844;28;20217;-62
2020/12/27 03:27:44;;;;;;;0.70;0.50;;;;;19.70;98824.00;;;;2080244;28;20209;-62
2020/12/27 03:28:44;;;;;;;0.70;0.60;;;;;19.70;98782.00;;;;2071695;28;20281;-62
2020/12/27 03:29:45;;;;;;;0.70;0.57;;;;;19.70;98820.00;;;;2055556;28;20285;-63
2020/12/27 03:30:45;;;;;;;0.83;0.60;;;;;19.70;98831.00;;;;2063577;28;20216;-62
2020/12/27 03:31:45;;;;;;;0.60;0.50;;;;;19.70;98819.00;;;;2072171;28;20241;-62
2020/12/27 03:32:46;;;;;;;0.60;0.50;;;;;19.70;98808.00;;;;2080292;28;20216;-62
2020/12/27 03:33:46;;;;;;;0.90;0.60;;;;;19.70;98800.00;;;;2071636;28;20208;-63
2020/12/27 03:34:47;;;;;;;0.80;0.60;;;;;19.70;98795.00;;;;2063566;28;20717;-62
2020/12/27 03:35:47;;;;;;;0.70;0.60;;;;;19.70;98791.00;;;;2080117;28;20243;-62
2020/12/27 03:36:47;;;;;;;0.60;0.53;;;;;19.70;98784.00;;;;2072395;28;20212;-63
2020/12/27 03:37:48;;;;;;;0.60;0.60;;;;;19.70;98768.00;;;;2079746;28;20211;-62
2020/12/27 03:38:51;;;;;;;0.80;0.50;;;;;19.70;98785.00;;;;2064119;28;20682;-64
2020/12/27 03:39:52;;;;;;;0.80;0.70;;;;;19.70;98768.00;;;;2072210;28;20336;-64
2020/12/27 03:40:52;;;;;;;0.93;0.50;;;;;19.70;98776.00;;;;2079459;28;20247;-65
2020/12/27 03:41:52;;;;;;;0.60;0.57;;;;;19.70;98783.00;;;;2073177;28;20252;-65
2020/12/27 03:42:53;;;;;;;1.53;0.50;;;;;19.70;98781.00;;;;2070652;28;20232;-64
2020/12/27 03:43:53;;;;;;;0.90;0.83;;;;;19.70;98770.00;;;;2064465;28;20225;-64
2020/12/27 03:44:53;;;;;;;0.80;0.50;;;;;19.60;98762.00;;;;2078969;28;20218;-64
2020/12/27 03:45:54;;;;;;;0.70;0.60;;;;;19.70;98748.00;;;;2073308;28;20291;-64
2020/12/27 03:46:54;;;;;;;0.70;0.50;;;;;19.60;98744.00;;;;2079048;28;20219;-64
2020/12/27 03:47:54;;;;;;;1.00;0.53;;;;;19.70;98752.00;;;;2073329;28;20237;-65
2020/12/27 03:48:55;;;;;;;0.60;0.50;;;;;19.70;98761.00;;;;2078966;28;20274;-64
2020/12/27 03:49:55;;;;;;;0.70;0.53;;;;;19.70;98772.00;;;;2073543;28;20254;-64
2020/12/27 03:50:56;;;;;;;0.60;0.50;;;;;19.70;98747.00;;;;2078920;28;20230;-64
2020/12/27 03:51:56;;;;;;;1.13;0.80;;;;;19.70;98741.00;;;;2071475;28;20213;-64
2020/12/27 03:52:56;;;;;;;0.77;0.60;;;;;19.70;98737.00;;;;2064142;28;20224;-64
2020/12/27 03:53:57;;;;;;;0.60;0.43;;;;;19.70;98731.00;;;;2070922;28;20247;-64
2020/12/27 03:54:57;;;;;;;0.93;0.60;;;;;19.70;98724.00;;;;2079205;28;20210;-64
2020/12/27 03:55:57;;;;;;;0.80;0.60;;;;;19.70;98722.00;;;;2078254;28;20227;-65
2020/12/27 03:56:58;;;;;;;0.70;0.50;;;;;19.60;98718.00;;;;2071776;28;20218;-64
2020/12/27 03:57:58;;;;;;;0.60;0.50;;;;;19.70;98734.00;;;;2073309;28;20212;-64
2020/12/27 03:58:59;;;;;;;0.70;0.50;;;;;19.70;98730.00;;;;2077351;28;20269;-64
2020/12/27 04:00:03;;;;;;;0.80;0.67;;;;;19.70;98729.00;;;;2072060;28;20286;-64
2020/12/27 04:01:03;;;;;;;0.70;0.50;;;;;19.70;98712.00;;;;2071960;28;20223;-64
2020/12/27 04:02:03;;;;;;;0.60;0.50;;;;;19.60;98724.00;;;;2069206;28;20231;-62
2020/12/27 04:03:04;;;;;;;0.50;0.40;;;;;19.70;98716.00;;;;2074623;28;20232;-64
2020/12/27 04:04:04;;;;;;;0.70;0.50;;;;;19.60;98716.00;;;;2077619;28;20215;-65
2020/12/27 04:05:04;;;;;;;0.60;0.50;;;;;19.60;98709.00;;;;2074299;28;20262;-65
2020/12/27 04:06:05;;;;;;;0.70;0.47;;;;;19.70;98678.00;;;;2077473;28;20223;-65
2020/12/27 04:07:05;;;;;;;0.70;0.50;;;;;19.60;98691.00;;;;2074573;28;20618;-66
2020/12/27 04:08:05;;;;;;;0.70;0.40;;;;;19.60;98686.00;;;;2077029;28;20646;-66
2020/12/27 04:09:06;;;;;;;0.60;0.47;;;;;19.60;98689.00;;;;2076619;28;20288;-65
2020/12/27 04:10:07;;;;;;;1.00;0.40;;;;;19.60;98689.00;;;;2065470;28;20640;-66
2020/12/27 04:11:07;;;;;;;0.70;0.55;;;;;19.60;98681.00;;;;2070623;28;20217;-65
2020/12/27 04:12:13;;;;;;;0.70;0.50;;;;;19.60;98670.00;;;;2065799;28;20258;-66
2020/12/27 04:13:13;;;;;;;0.80;0.50;;;;;19.60;98675.00;;;;2075772;28;20225;-65
2020/12/27 04:14:14;;;;;;;1.33;0.40;;;;;19.60;98681.00;;;;2075281;28;20691;-65
2020/12/27 04:15:14;;;;;;;0.60;0.40;;;;;19.60;98665.00;;;;2075391;28;20221;-65
2020/12/27 04:16:14;;;;;;;0.70;0.60;;;;;19.60;98667.00;;;;2075234;28;20215;-65
2020/12/27 04:17:15;;;;;;;0.60;0.50;;;;;19.60;98671.00;;;;2074868;28;20585;-65
2020/12/27 04:18:15;;;;;;;0.63;0.40;;;;;19.60;98662.00;;;;2075269;28;20239;-65
2020/12/27 04:19:16;;;;;;;1.37;0.50;;;;;19.60;98669.00;;;;2075111;28;20204;-65
2020/12/27 04:20:16;;;;;;;0.60;0.40;;;;;19.60;98644.00;;;;2075555;28;20222;-66
2020/12/27 04:21:16;;;;;;;0.60;0.40;;;;;19.60;98658.00;;;;2075098;28;20209;-65
2020/12/27 04:22:17;;;;;;;0.70;0.50;;;;;19.60;98667.00;;;;2075375;28;20235;-65
2020/12/27 04:23:17;;;;;;;0.83;0.50;;;;;19.60;98656.00;;;;2075111;28;20240;-65
2020/12/27 04:24:17;;;;;;;1.27;0.53;;;;;19.60;98641.00;;;;2075411;28;20220;-66
2020/12/27 04:25:18;;;;;;;0.60;0.40;;;;;19.60;98650.00;;;;2075254;28;20853;-65
2020/12/27 04:26:18;;;;;;;0.70;0.40;;;;;19.60;98638.00;;;;2076227;28;20215;-65
2020/12/27 04:27:18;;;;;;;0.70;0.50;;;;;19.60;98642.00;;;;2066655;28;20225;-66
2020/12/27 04:28:19;;;;;;;0.60;0.40;;;;;19.60;98661.00;;;;2059467;28;20220;-65
2020/12/27 04:29:19;;;;;;;0.50;0.30;;;;;19.60;98637.00;;;;2071280;28;20221;-65
2020/12/27 04:30:20;;;;;;;0.70;0.50;;;;;19.60;98630.00;;;;2079895;28;20220;-65
2020/12/27 04:31:20;;;;;;;0.60;0.50;;;;;19.60;98630.00;;;;2075151;28;20711;-65
2020/12/27 04:32:23;;;;;;;1.63;0.60;;;;;19.60;98626.00;;;;2076519;28;20222;-65
2020/12/27 04:33:24;;;;;;;0.60;0.40;;;;;19.50;98635.00;;;;2074524;28;20838;-66
2020/12/27 04:34:24;;;;;;;1.73;0.73;;;;;19.60;98618.00;;;;2077015;28;20231;-66
2020/12/27 04:35:24;;;;;;;0.73;0.40;;;;;19.60;98618.00;;;;2074376;28;20287;-65
2020/12/27 04:36:25;;;;;;;0.73;0.40;;;;;19.60;98613.00;;;;2077128;28;20229;-65
2020/12/27 04:37:25;;;;;;;1.00;0.50;;;;;19.60;98604.00;;;;2065896;28;20212;-65
2020/12/27 04:38:25;;;;;;;0.80;0.40;;;;;19.60;98590.00;;;;2068400;28;20216;-65
2020/12/27 04:39:26;;;;;;;0.60;0.40;;;;;19.60;98600.00;;;;2079965;28;20258;-64
2020/12/27 04:40:26;;;;;;;1.53;0.43;;;;;19.60;98583.00;;;;2079805;28;20252;-64
2020/12/27 04:41:27;;;;;;;1.07;0.70;;;;;19.60;98586.00;;;;2070805;28;20220;-64
2020/12/27 04:42:27;;;;;;;0.97;0.50;;;;;19.60;98580.00;;;;2054927;28;20226;-64
2020/12/27 04:43:27;;;;;;;0.83;0.47;;;;;19.60;98574.00;;;;2060458;28;21014;-64
2020/12/27 04:44:28;;;;;;;0.50;0.33;;;;;19.60;98579.00;;;;2073955;28;20223;-64
2020/12/27 04:45:28;;;;;;;0.60;0.40;;;;;19.60;98566.00;;;;2068582;28;20259;-64
2020/12/27 04:46:28;;;;;;;1.00;0.40;;;;;19.60;98568.00;;;;2065429;28;20584;-64
2020/12/27 04:47:29;;;;;;;0.87;0.40;;;;;19.60;98502.00;;;;2060784;28;20924;-64
2020/12/27 04:48:29;;;;;;;2.83;0.50;;;;;19.60;98572.00;;;;2055117;28;20416;-64
2020/12/27 04:49:30;;;;;;;0.50;0.40;;;;;19.60;98561.00;;;;2060899;28;20591;-64
2020/12/27 04:50:30;;;;;;;0.60;0.40;;;;;19.50;98554.00;;;;2070956;28;20225;-64
2020/12/27 04:51:31;;;;;;;1.13;0.50;;;;;19.50;98555.00;;;;2077978;28;20220;-64
2020/12/27 04:52:31;;;;;;;0.60;0.40;;;;;19.50;98566.00;;;;2056864;28;20457;-64
2020/12/27 04:53:35;;;;;;;0.60;0.40;;;;;19.50;98560.00;;;;2061266;28;20216;-64
2020/12/27 04:54:35;;;;;;;0.60;0.40;;;;;19.60;98549.00;;;;2079760;28;20212;-64
2020/12/27 04:55:36;;;;;;;0.70;0.40;;;;;19.60;98562.00;;;;2055327;28;20241;-64
2020/12/27 04:56:36;;;;;;;0.60;0.40;;;;;19.50;98547.00;;;;2061752;28;20221;-64
2020/12/27 04:57:36;;;;;;;1.30;0.50;;;;;19.50;98562.00;;;;2070923;28;20216;-64
2020/12/27 04:58:37;;;;;;;0.60;0.50;;;;;19.50;98549.00;;;;2053984;28;20704;-64
2020/12/27 04:59:37;;;;;;;0.77;0.47;;;;;19.50;98545.00;;;;2061898;28;20705;-64
2020/12/27 05:00:37;;;;;;;0.80;0.40;;;;;19.50;98543.00;;;;2070886;28;20216;-64
2020/12/27 05:01:39;;;;;;;0.80;0.60;;;;;19.50;98539.00;;;;2070851;28;20303;-64
2020/12/27 05:02:39;;;;;;;0.82;0.40;;;;;19.50;98517.00;;;;2079741;28;20215;-64
2020/12/27 05:03:40;;;;;;;0.60;0.40;;;;;19.50;98512.00;;;;2072318;28;20227;-64
2020/12/27 05:04:42;;;;;;;0.60;0.40;;;;;19.50;98520.00;;;;2078924;28;20215;-64
2020/12/27 05:05:43;;;;;;;0.60;0.40;;;;;19.50;98491.00;;;;2071675;28;20227;-64
2020/12/27 05:06:44;;;;;;;0.70;0.40;;;;;19.50;98500.00;;;;2079383;28;20634;-64